Time;durP1;ratioP1;P1;durP2;ratioP2;P2;SDS_P1;SDS_P2;PMS_P1;PMS_P2;Temp;Humidity;BMP_temperature;BMP_pressure;BME280_temperature;BME280_humidity;BME280_pressure;Samples;Min_cycle;Max_cycle;Signal;HPM_P1;HPM_P2
2022/01/22 00:01:49;;;;;;;10.48;5.80;;;;;;;;;;5069703;28;20016;-67
2022/01/22 00:04:15;;;;;;;10.77;5.55;;;;;;;;;;5069457;28;20036;-66
2022/01/22 00:06:40;;;;;;;16.02;6.25;;;;;;;;;;5069708;28;20025;-67
2022/01/22 00:09:07;;;;;;;11.40;5.63;;;;;;;;;;5069468;28;20446;-67
2022/01/22 00:11:37;;;;;;;10.13;5.82;;;;;;;;;;5069497;28;20609;-66
2022/01/22 00:16:47;;;;;;;13.27;6.72;;;;;;;;;;5069619;28;20044;-66
2022/01/22 00:19:13;;;;;;;14.48;7.00;;;;;;;;;;5069554;28;20029;-66
2022/01/22 00:21:38;;;;;;;11.63;7.15;;;;;;;;;;5069685;28;20037;-66
2022/01/22 00:24:07;;;;;;;14.70;6.97;;;;;;;;;;5069342;28;20024;-65
2022/01/22 00:26:32;;;;;;;14.88;6.75;;;;;;;;;;5069337;28;20025;-66
2022/01/22 00:28:58;;;;;;;12.27;6.38;;;;;;;;;;5069451;28;20023;-66
2022/01/22 00:31:23;;;;;;;17.27;6.75;;;;;;;;;;5069272;28;20512;-65
2022/01/22 00:33:49;;;;;;;13.10;6.70;;;;;;;;;;5069393;28;20438;-67
2022/01/22 00:36:14;;;;;;;11.75;6.60;;;;;;;;;;5069317;28;20017;-67
2022/01/22 00:38:39;;;;;;;13.80;6.68;;;;;;;;;;5069436;28;20095;-65
2022/01/22 00:41:05;;;;;;;11.80;6.03;;;;;;;;;;5069037;28;20044;-65
2022/01/22 00:43:30;;;;;;;15.55;7.03;;;;;;;;;;5068924;28;20025;-65
2022/01/22 00:45:56;;;;;;;12.30;6.40;;;;;;;;;;5071868;28;20024;-65
2022/01/22 00:48:21;;;;;;;11.80;5.93;;;;;;;;;;5072804;28;20029;-65
2022/01/22 00:50:51;;;;;;;11.48;6.40;;;;;;;;;;5072701;28;20024;-67
2022/01/22 00:53:16;;;;;;;12.18;5.53;;;;;;;;;;5072738;28;20043;-65
2022/01/22 00:55:42;;;;;;;14.50;6.30;;;;;;;;;;5072463;28;20025;-66
2022/01/22 00:58:07;;;;;;;12.05;6.57;;;;;;;;;;5072647;28;20067;-67
2022/01/22 01:00:33;;;;;;;11.70;6.13;;;;;;;;;;5072259;28;20028;-66
2022/01/22 01:02:58;;;;;;;11.30;5.88;;;;;;;;;;5072322;28;20032;-65
2022/01/22 01:05:24;;;;;;;13.15;5.90;;;;;;;;;;5072320;28;20092;-66
2022/01/22 01:07:49;;;;;;;12.80;5.95;;;;;;;;;;5072357;28;20446;-66
2022/01/22 01:10:18;;;;;;;12.32;6.15;;;;;;;;;;5072419;28;20016;-66
2022/01/22 01:12:44;;;;;;;15.07;6.03;;;;;;;;;;5072427;28;20052;-67
2022/01/22 01:32:12;;;;;;;11.38;5.65;;;;;;;;;;5072196;28;20035;-66
2022/01/22 01:34:10;;;;;;;12.65;5.38;;;;;;;;;;5072044;28;20330;-65
2022/01/22 01:36:37;;;;;;;12.80;5.68;;;;;;;;;;5071551;28;20029;-66
2022/01/22 01:39:06;;;;;;;13.50;5.70;;;;;;;;;;5071898;28;20252;-67
2022/01/22 01:43:56;;;;;;;10.68;5.72;;;;;;;;;;5071791;28;20100;-66
2022/01/22 01:46:24;;;;;;;12.07;4.93;;;;;;;;;;5071572;28;20024;-67
2022/01/22 01:48:50;;;;;;;12.40;5.75;;;;;;;;;;5071888;28;20460;-67
2022/01/22 01:51:15;;;;;;;8.93;5.00;;;;;;;;;;5071559;28;20476;-67
2022/01/22 01:59:09;;;;;;;11.13;5.65;;;;;;;;;;5071671;28;20586;-66
2022/01/22 02:01:34;;;;;;;10.93;5.47;;;;;;;;;;5071893;28;20059;-66
2022/01/22 02:03:59;;;;;;;10.15;5.25;;;;;;;;;;5071523;28;20020;-67
2022/01/22 02:06:25;;;;;;;13.10;5.45;;;;;;;;;;5071478;28;20020;-66
2022/01/22 02:08:52;;;;;;;10.50;4.88;;;;;;;;;;5071349;28;20050;-65
2022/01/22 02:11:20;;;;;;;9.98;4.93;;;;;;;;;;5071138;28;20020;-65
2022/01/22 02:14:11;;;;;;;10.75;5.07;;;;;;;;;;5071227;28;20158;-66
2022/01/22 02:24:53;;;;;;;10.88;5.03;;;;;;;;;;5070952;28;20039;-65
2022/01/22 02:27:19;;;;;;;8.88;4.47;;;;;;;;;;5070922;28;20659;-66
2022/01/22 02:29:45;;;;;;;9.73;4.75;;;;;;;;;;5070631;28;20024;-65
2022/01/22 02:37:38;;;;;;;8.98;4.80;;;;;;;;;;5070840;28;20486;-66
2022/01/22 02:40:10;;;;;;;7.95;4.45;;;;;;;;;;5070570;28;20052;-65
2022/01/22 02:42:36;;;;;;;8.90;4.82;;;;;;;;;;5070354;28;20568;-66
2022/01/22 02:45:10;;;;;;;9.25;4.28;;;;;;;;;;5070205;28;20040;-66
2022/01/22 02:47:35;;;;;;;10.07;4.15;;;;;;;;;;5070555;28;20111;-65
2022/01/22 02:50:02;;;;;;;7.43;3.88;;;;;;;;;;5070440;28;20112;-66
2022/01/22 02:52:27;;;;;;;9.63;4.10;;;;;;;;;;5070616;28;20016;-67
2022/01/22 02:54:53;;;;;;;8.13;4.05;;;;;;;;;;5070472;28;20021;-66
2022/01/22 02:57:19;;;;;;;9.75;3.78;;;;;;;;;;5070334;28;20017;-65
2022/01/22 02:59:44;;;;;;;6.10;3.70;;;;;;;;;;5070191;28;20094;-65
2022/01/22 03:02:12;;;;;;;7.82;4.03;;;;;;;;;;5070239;28;20384;-67
2022/01/22 03:04:38;;;;;;;7.93;3.88;;;;;;;;;;5070236;28;20021;-65
2022/01/22 03:07:04;;;;;;;7.32;3.83;;;;;;;;;;5069752;28;20033;-66
2022/01/22 03:09:32;;;;;;;7.78;3.63;;;;;;;;;;5070303;28;20031;-66
2022/01/22 03:27:29;;;;;;;8.70;4.32;;;;;;;;;;5070295;28;20078;-66
2022/01/22 03:29:56;;;;;;;11.32;4.20;;;;;;;;;;5069790;28;20020;-65
2022/01/22 03:32:24;;;;;;;8.48;4.22;;;;;;;;;;5069934;28;20033;-65
2022/01/22 03:35:00;;;;;;;14.80;4.20;;;;;;;;;;5069761;28;20024;-66
2022/01/22 03:37:27;;;;;;;9.98;4.60;;;;;;;;;;5069647;28;20028;-67
2022/01/22 03:39:54;;;;;;;8.25;4.05;;;;;;;;;;5069873;28;20029;-66
2022/01/22 03:42:20;;;;;;;7.72;4.13;;;;;;;;;;5069723;28;20026;-65
2022/01/22 03:44:46;;;;;;;8.13;3.90;;;;;;;;;;5069606;28;20021;-65
2022/01/22 03:47:11;;;;;;;9.88;4.10;;;;;;;;;;5069721;28;20048;-66
2022/01/22 03:49:37;;;;;;;6.78;3.63;;;;;;;;;;5069748;28;20025;-66
2022/01/22 03:52:03;;;;;;;7.68;3.80;;;;;;;;;;5069518;28;20028;-65
2022/01/22 03:54:29;;;;;;;10.45;4.32;;;;;;;;;;5069624;28;20047;-66
2022/01/22 03:56:54;;;;;;;8.90;3.83;;;;;;;;;;5069797;28;20468;-65
2022/01/22 03:59:20;;;;;;;7.20;4.00;;;;;;;;;;5069661;28;20483;-66
2022/01/22 04:04:38;;;;;;;8.63;3.78;;;;;;;;;;5069628;28;20490;-66
2022/01/22 04:09:44;;;;;;;7.28;3.40;;;;;;;;;;5069714;28;20479;-66
2022/01/22 04:12:18;;;;;;;8.35;3.42;;;;;;;;;;5069791;28;20116;-65
2022/01/22 04:14:49;;;;;;;5.95;3.33;;;;;;;;;;5069767;28;20320;-66
2022/01/22 04:24:50;;;;;;;8.10;3.78;;;;;;;;;;5073323;28;20094;-66
2022/01/22 04:25:27;;;;;;;;;;;;;;;;;;5073673;28;20115;-67
2022/01/22 04:27:57;;;;;;;7.50;3.45;;;;;;;;;;5072881;28;19913;-65
2022/01/22 04:30:24;;;;;;;6.97;3.63;;;;;;;;;;5073153;28;20035;-66
2022/01/22 04:32:50;;;;;;;8.48;3.60;;;;;;;;;;5073103;28;20323;-67
2022/01/22 04:35:17;;;;;;;8.13;3.40;;;;;;;;;;5073414;28;20556;-66
2022/01/22 04:37:46;;;;;;;10.60;3.65;;;;;;;;;;5072875;28;20021;-67
2022/01/22 04:40:12;;;;;;;6.65;3.17;;;;;;;;;;5072902;28;20024;-65
2022/01/22 04:42:40;;;;;;;8.30;3.22;;;;;;;;;;5072745;28;20028;-65
2022/01/22 04:45:26;;;;;;;7.82;3.30;;;;;;;;;;5072485;28;20029;-66
2022/01/22 04:48:08;;;;;;;5.78;3.03;;;;;;;;;;5072889;28;20025;-66
2022/01/22 04:55:44;;;;;;;7.70;3.50;;;;;;;;;;5072616;28;20013;-65
2022/01/22 04:58:10;;;;;;;6.20;3.22;;;;;;;;;;5072710;28;20021;-66
2022/01/22 05:00:39;;;;;;;6.07;3.10;;;;;;;;;;5072514;28;20472;-66
2022/01/22 05:03:05;;;;;;;6.35;3.28;;;;;;;;;;5072526;28;20063;-65
2022/01/22 05:05:31;;;;;;;5.70;3.00;;;;;;;;;;5072714;28;20025;-66
2022/01/22 05:07:57;;;;;;;6.93;2.95;;;;;;;;;;5072429;28;20039;-66
2022/01/22 05:10:23;;;;;;;10.55;3.38;;;;;;;;;;5072434;28;20028;-64
2022/01/22 05:12:50;;;;;;;7.72;3.22;;;;;;;;;;5072480;28;20034;-65
2022/01/22 05:15:17;;;;;;;8.15;3.25;;;;;;;;;;5072103;28;20029;-64
2022/01/22 05:17:44;;;;;;;6.85;3.08;;;;;;;;;;5071931;28;20048;-66
2022/01/22 05:20:18;;;;;;;8.60;3.13;;;;;;;;;;5072100;28;20063;-65
2022/01/22 05:25:21;;;;;;;7.80;3.03;;;;;;;;;;5072338;28;20472;-64
2022/01/22 05:33:30;;;;;;;8.10;3.30;;;;;;;;;;5071866;28;20067;-65
2022/01/22 05:38:39;;;;;;;11.50;3.70;;;;;;;;;;5072038;28;20116;-65
2022/01/22 05:41:05;;;;;;;8.57;3.80;;;;;;;;;;5072181;28;20108;-66
2022/01/22 05:43:30;;;;;;;6.22;2.92;;;;;;;;;;5072121;28;20097;-67
2022/01/22 05:45:56;;;;;;;6.43;3.10;;;;;;;;;;5071404;28;20020;-65
2022/01/22 05:48:21;;;;;;;9.68;3.55;;;;;;;;;;5071462;28;20497;-65
2022/01/22 05:50:51;;;;;;;9.23;3.67;;;;;;;;;;5071587;28;20180;-67
2022/01/22 06:01:16;;;;;;;5.93;2.70;;;;;;;;;;5071410;28;20035;-67
2022/01/22 06:03:42;;;;;;;4.80;2.70;;;;;;;;;;5071307;28;20032;-65
2022/01/22 06:06:07;;;;;;;6.28;3.25;;;;;;;;;;5071223;28;20030;-65
2022/01/22 06:08:38;;;;;;;8.05;2.85;;;;;;;;;;5070943;28;20403;-65
2022/01/22 06:11:09;;;;;;;5.63;2.60;;;;;;;;;;5071065;28;20055;-66
2022/01/22 06:13:44;;;;;;;7.13;3.05;;;;;;;;;;5071355;28;20024;-66
2022/01/22 06:16:27;;;;;;;5.82;2.50;;;;;;;;;;5071033;28;20032;-65
2022/01/22 06:18:53;;;;;;;7.00;3.35;;;;;;;;;;5071013;28;20187;-66
2022/01/22 06:21:18;;;;;;;7.15;3.75;;;;;;;;;;5071298;28;20119;-65
2022/01/22 06:23:47;;;;;;;7.20;3.30;;;;;;;;;;5070861;28;20113;-66
2022/01/22 06:26:13;;;;;;;6.72;3.70;;;;;;;;;;5070719;28;20468;-66
2022/01/22 06:28:39;;;;;;;8.18;2.78;;;;;;;;;;5070682;28;20025;-64
2022/01/22 06:31:04;;;;;;;6.63;2.83;;;;;;;;;;5070853;28;20038;-67
2022/01/22 06:33:30;;;;;;;5.38;2.60;;;;;;;;;;5070936;28;20048;-65
2022/01/22 06:35:56;;;;;;;8.15;2.90;;;;;;;;;;5070871;28;20487;-66
2022/01/22 06:38:22;;;;;;;4.70;2.65;;;;;;;;;;5070599;28;20053;-66
2022/01/22 06:43:32;;;;;;;6.43;2.70;;;;;;;;;;5070044;28;20082;-67
2022/01/22 06:45:57;;;;;;;7.97;3.05;;;;;;;;;;5070592;28;20029;-67
2022/01/22 06:48:23;;;;;;;11.32;3.22;;;;;;;;;;5070490;28;20271;-66
2022/01/22 06:50:49;;;;;;;6.80;3.08;;;;;;;;;;5070946;28;20048;-66
2022/01/22 06:53:14;;;;;;;8.88;3.20;;;;;;;;;;5070608;28;20492;-66
2022/01/22 06:55:47;;;;;;;7.43;3.50;;;;;;;;;;5070388;28;20567;-65
2022/01/22 06:58:13;;;;;;;7.18;3.10;;;;;;;;;;5070265;28;20035;-65
2022/01/22 07:00:38;;;;;;;7.95;3.40;;;;;;;;;;5070162;28;20032;-66
2022/01/22 07:03:04;;;;;;;7.00;3.33;;;;;;;;;;5070429;28;20024;-66
2022/01/22 07:05:30;;;;;;;7.53;3.60;;;;;;;;;;5070402;28;20087;-65
2022/01/22 07:07:56;;;;;;;6.00;2.92;;;;;;;;;;5070288;28;20538;-66
2022/01/22 07:10:21;;;;;;;8.32;3.50;;;;;;;;;;5070095;28;20033;-67
2022/01/22 07:12:47;;;;;;;7.85;3.30;;;;;;;;;;5070151;28;20052;-64
2022/01/22 07:15:13;;;;;;;7.65;3.28;;;;;;;;;;5070095;28;20029;-66
2022/01/22 07:17:40;;;;;;;8.15;3.40;;;;;;;;;;5069754;28;20048;-67
2022/01/22 07:20:13;;;;;;;8.07;3.42;;;;;;;;;;5070129;28;20131;-64
2022/01/22 07:22:49;;;;;;;8.48;3.58;;;;;;;;;;5070073;28;20063;-66
2022/01/22 07:25:15;;;;;;;7.35;3.65;;;;;;;;;;5070171;28;20054;-65
2022/01/22 07:27:41;;;;;;;6.60;3.53;;;;;;;;;;5069876;28;20052;-65
2022/01/22 07:30:07;;;;;;;11.68;4.90;;;;;;;;;;5069775;28;20059;-65
2022/01/22 07:32:36;;;;;;;14.88;5.25;;;;;;;;;;5069786;28;20027;-65
2022/01/22 07:35:05;;;;;;;11.32;5.60;;;;;;;;;;5070119;28;20028;-66
2022/01/22 07:37:30;;;;;;;13.35;5.88;;;;;;;;;;5070328;28;20024;-66
2022/01/22 07:39:56;;;;;;;11.20;5.32;;;;;;;;;;5069969;28;20024;-67
2022/01/22 07:42:21;;;;;;;20.55;7.13;;;;;;;;;;5070213;28;20111;-66
2022/01/22 07:44:47;;;;;;;13.35;7.35;;;;;;;;;;5069787;28;20024;-66
2022/01/22 07:47:12;;;;;;;18.95;8.05;;;;;;;;;;5069535;28;20029;-67
2022/01/22 07:49:38;;;;;;;16.63;8.23;;;;;;;;;;5070157;28;20306;-66
2022/01/22 07:52:04;;;;;;;17.50;8.57;;;;;;;;;;5070254;28;20114;-66
2022/01/22 07:54:32;;;;;;;16.65;7.85;;;;;;;;;;5072994;28;20029;-68
2022/01/22 07:56:57;;;;;;;17.35;8.85;;;;;;;;;;5074203;28;20110;-66
2022/01/22 07:59:23;;;;;;;18.02;8.75;;;;;;;;;;5073784;28;20310;-65
2022/01/22 08:01:49;;;;;;;7.75;3.95;;;;;;;;;;5073761;28;20044;-66
2022/01/22 08:04:15;;;;;;;8.55;3.85;;;;;;;;;;5073614;28;20027;-67
2022/01/22 08:06:41;;;;;;;9.50;3.95;;;;;;;;;;5073442;28;20021;-67
2022/01/22 08:09:06;;;;;;;7.68;3.20;;;;;;;;;;5073679;28;20074;-66
2022/01/22 08:11:32;;;;;;;7.22;3.45;;;;;;;;;;5073684;28;20024;-66
2022/01/22 08:13:57;;;;;;;7.57;3.47;;;;;;;;;;5073509;28;20036;-65
2022/01/22 08:16:23;;;;;;;7.53;3.85;;;;;;;;;;5073733;28;20144;-68
2022/01/22 08:18:48;;;;;;;7.80;4.00;;;;;;;;;;5072958;28;20059;-67
2022/01/22 08:21:14;;;;;;;10.13;4.97;;;;;;;;;;5073122;28;20017;-64
2022/01/22 08:23:39;;;;;;;12.07;5.70;;;;;;;;;;5073193;28;20020;-66
2022/01/22 08:26:08;;;;;;;12.05;6.35;;;;;;;;;;5073287;28;20032;-65
2022/01/22 08:31:48;;;;;;;16.63;6.10;;;;;;;;;;5073150;28;20035;-66
2022/01/22 08:36:49;;;;;;;12.15;6.03;;;;;;;;;;5073361;28;20388;-66
2022/01/22 08:39:17;;;;;;;10.18;4.60;;;;;;;;;;5072663;28;20472;-66
2022/01/22 08:41:43;;;;;;;8.98;4.20;;;;;;;;;;5072793;28;20027;-66
2022/01/22 08:44:10;;;;;;;7.35;4.00;;;;;;;;;;5073199;28;20037;-64
2022/01/22 08:46:36;;;;;;;12.75;4.60;;;;;;;;;;5072850;28;20012;-66
2022/01/22 08:49:03;;;;;;;8.55;4.15;;;;;;;;;;5072874;28;20082;-65
2022/01/22 08:51:29;;;;;;;8.43;3.78;;;;;;;;;;5071561;28;20025;-69
2022/01/22 08:53:55;;;;;;;7.32;4.00;;;;;;;;;;5072213;28;20105;-69
2022/01/22 08:56:20;;;;;;;10.25;3.97;;;;;;;;;;5072459;28;20036;-70
2022/01/22 08:58:47;;;;;;;10.27;3.78;;;;;;;;;;5072340;28;20032;-68
2022/01/22 09:01:12;;;;;;;9.07;4.15;;;;;;;;;;5072379;28;20032;-70
2022/01/22 09:03:38;;;;;;;8.20;4.25;;;;;;;;;;5072433;28;20033;-69
2022/01/22 09:06:05;;;;;;;12.40;4.97;;;;;;;;;;5071827;28;20029;-69
2022/01/22 09:08:31;;;;;;;8.25;4.50;;;;;;;;;;5072808;28;20059;-70
2022/01/22 09:10:57;;;;;;;10.43;4.57;;;;;;;;;;5072103;28;20547;-71
2022/01/22 09:13:24;;;;;;;9.32;4.13;;;;;;;;;;5072239;28;20575;-69
2022/01/22 09:15:53;;;;;;;8.13;4.05;;;;;;;;;;5072451;28;20028;-68
2022/01/22 09:18:19;;;;;;;11.20;3.80;;;;;;;;;;5072202;28;20049;-69
2022/01/22 09:21:02;;;;;;;8.68;4.03;;;;;;;;;;5072260;28;20036;-69
2022/01/22 09:23:29;;;;;;;10.43;4.35;;;;;;;;;;5072203;28;20101;-69
2022/01/22 09:25:55;;;;;;;6.80;4.18;;;;;;;;;;5072013;28;20021;-70
2022/01/22 09:28:21;;;;;;;7.22;4.32;;;;;;;;;;5072033;28;20105;-68
2022/01/22 09:30:47;;;;;;;12.02;5.05;;;;;;;;;;5071617;28;20465;-68
2022/01/22 09:33:14;;;;;;;10.13;4.75;;;;;;;;;;5071941;28;20017;-67
2022/01/22 09:35:40;;;;;;;13.20;5.00;;;;;;;;;;5071995;28;20031;-69
2022/01/22 09:38:05;;;;;;;13.40;5.82;;;;;;;;;;5072444;28;20112;-66
2022/01/22 09:40:30;;;;;;;11.38;5.88;;;;;;;;;;5070208;28;20111;-66
2022/01/22 09:42:58;;;;;;;14.95;6.30;;;;;;;;;;5070175;28;20025;-66
2022/01/22 09:45:23;;;;;;;15.48;6.50;;;;;;;;;;5069643;28;20016;-65
2022/01/22 09:47:50;;;;;;;14.15;6.38;;;;;;;;;;5069790;28;20036;-65
2022/01/22 09:50:17;;;;;;;14.57;6.70;;;;;;;;;;5069744;28;20028;-66
2022/01/22 09:52:45;;;;;;;16.73;6.53;;;;;;;;;;5069746;28;20031;-65
2022/01/22 09:55:11;;;;;;;14.05;5.95;;;;;;;;;;5070480;28;20101;-69
2022/01/22 09:57:37;;;;;;;14.73;5.70;;;;;;;;;;5071529;28;20484;-67
2022/01/22 10:00:09;;;;;;;17.23;6.75;;;;;;;;;;5071364;28;20032;-68
2022/01/22 10:03:01;;;;;;;12.13;5.93;;;;;;;;;;5071223;28;20499;-66
2022/01/22 10:05:36;;;;;;;11.13;4.63;;;;;;;;;;5068909;28;20120;-68
2022/01/22 10:08:24;;;;;;;10.57;3.58;;;;;;;;;;5071465;28;20422;-65
2022/01/22 10:10:52;;;;;;;10.05;3.30;;;;;;;;;;5071050;28;20139;-65
2022/01/22 10:13:38;;;;;;;16.05;3.92;;;;;;;;;;5071592;28;20060;-68
2022/01/22 10:16:11;;;;;;;11.07;4.10;;;;;;;;;;5069377;28;20044;-67
2022/01/22 10:18:36;;;;;;;9.75;3.38;;;;;;;;;;5062097;28;20148;-67
2022/01/22 10:21:07;;;;;;;8.98;3.90;;;;;;;;;;5070589;28;20535;-67
2022/01/22 10:23:38;;;;;;;9.43;4.10;;;;;;;;;;5070862;28;20507;-67
2022/01/22 10:26:06;;;;;;;16.58;4.35;;;;;;;;;;5050896;28;20024;-67
2022/01/22 10:28:45;;;;;;;11.63;3.50;;;;;;;;;;5049571;28;20385;-69
2022/01/22 10:31:20;;;;;;;8.45;3.38;;;;;;;;;;5048445;28;20025;-68
2022/01/22 10:34:12;;;;;;;9.88;3.10;;;;;;;;;;5048498;28;20457;-67
2022/01/22 10:36:39;;;;;;;6.28;2.72;;;;;;;;;;5049122;28;20051;-69
2022/01/22 10:39:26;;;;;;;9.65;3.22;;;;;;;;;;5085832;27;20811;-66
2022/01/22 10:41:52;;;;;;;6.77;2.70;;;;;;;;;;5085722;28;20187;-66
2022/01/22 10:44:36;;;;;;;5.22;2.75;;;;;;;;;;5085888;28;20434;-66
2022/01/22 10:47:04;;;;;;;6.07;2.60;;;;;;;;;;5086615;28;20025;-65
2022/01/22 10:49:31;;;;;;;8.85;2.92;;;;;;;;;;5087407;28;20024;-65
2022/01/22 10:52:07;;;;;;;8.00;2.50;;;;;;;;;;5087326;28;20024;-67
2022/01/22 10:54:35;;;;;;;6.25;2.80;;;;;;;;;;5087288;28;20059;-67
2022/01/22 10:57:16;;;;;;;8.20;3.40;;;;;;;;;;5087009;28;20039;-66
2022/01/22 10:59:49;;;;;;;7.10;3.50;;;;;;;;;;5087173;28;20290;-65
2022/01/22 11:02:17;;;;;;;6.57;3.63;;;;;;;;;;5086990;28;20111;-67
2022/01/22 11:04:44;;;;;;;8.27;3.40;;;;;;;;;;5087293;28;20024;-65
2022/01/22 11:07:16;;;;;;;13.80;3.40;;;;;;;;;;5087155;28;20020;-66
2022/01/22 11:09:42;;;;;;;6.55;3.03;;;;;;;;;;5086902;28;20047;-66
2022/01/22 11:12:08;;;;;;;8.25;3.30;;;;;;;;;;5086675;28;20024;-67
2022/01/22 11:14:36;;;;;;;6.82;2.80;;;;;;;;;;5086658;28;20387;-67
2022/01/22 11:17:02;;;;;;;5.72;2.45;;;;;;;;;;5086686;28;20100;-69
2022/01/22 11:19:33;;;;;;;9.43;2.65;;;;;;;;;;5086902;28;20143;-70
2022/01/22 11:22:12;;;;;;;5.55;2.30;;;;;;;;;;5086593;28;20028;-67
2022/01/22 11:24:40;;;;;;;8.65;4.10;;;;;;;;;;5086712;28;20035;-69
2022/01/22 11:27:08;;;;;;;8.52;4.50;;;;;;;;;;5073098;28;20078;-68
2022/01/22 11:29:37;;;;;;;8.68;2.97;;;;;;;;;;5083726;28;20105;-70
2022/01/22 11:32:07;;;;;;;5.82;2.53;;;;;;;;;;5065991;28;20028;-70
2022/01/22 11:34:36;;;;;;;9.10;3.35;;;;;;;;;;5074451;28;20051;-67
2022/01/22 11:37:09;;;;;;;6.70;2.20;;;;;;;;;;5086014;28;20283;-69
2022/01/22 11:39:35;;;;;;;6.65;2.38;;;;;;;;;;5086390;28;20280;-68
2022/01/22 11:42:01;;;;;;;6.72;2.58;;;;;;;;;;5086253;28;20020;-68
2022/01/22 11:45:02;;;;;;;4.97;2.45;;;;;;;;;;5066298;28;20055;-69
2022/01/22 11:47:27;;;;;;;;;;;;;;;;;;5062523;28;20496;-67
2022/01/22 11:50:10;;;;;;;9.43;2.60;;;;;;;;;;5054382;28;19920;-67
2022/01/22 11:52:41;;;;;;;10.52;2.60;;;;;;;;;;5050790;28;20025;-68
2022/01/22 11:55:12;;;;;;;4.50;2.50;;;;;;;;;;5050770;28;20388;-68
2022/01/22 11:57:40;;;;;;;7.22;2.33;;;;;;;;;;5051807;28;20499;-68
2022/01/22 12:00:29;;;;;;;5.93;2.38;;;;;;;;;;5052560;28;20500;-68
2022/01/22 12:03:03;;;;;;;5.68;2.92;;;;;;;;;;5063702;28;20487;-67
2022/01/22 12:05:30;;;;;;;9.13;2.80;;;;;;;;;;5064178;28;20047;-68
2022/01/22 12:08:00;;;;;;;6.82;2.60;;;;;;;;;;5052400;28;20500;-68
2022/01/22 12:10:42;;;;;;;6.13;2.50;;;;;;;;;;5066896;28;20031;-67
2022/01/22 12:16:36;;;;;;;5.65;3.28;;;;;;;;;;5071669;28;20106;-66
2022/01/22 12:19:03;;;;;;;5.85;2.75;;;;;;;;;;5071544;28;20105;-67
2022/01/22 12:21:34;;;;;;;6.10;2.75;;;;;;;;;;5071315;28;20035;-67
2022/01/22 12:24:02;;;;;;;5.53;2.53;;;;;;;;;;5073985;28;20047;-67
2022/01/22 12:26:40;;;;;;;4.97;2.60;;;;;;;;;;5072036;28;20441;-68
2022/01/22 12:29:27;;;;;;;7.90;2.63;;;;;;;;;;5071751;28;20125;-68
2022/01/22 12:32:14;;;;;;;6.47;2.30;;;;;;;;;;5071632;28;20042;-68
2022/01/22 12:35:06;;;;;;;6.70;2.30;;;;;;;;;;5071990;28;20039;-68
2022/01/22 12:37:32;;;;;;;7.82;2.70;;;;;;;;;;5071721;28;20129;-68
2022/01/22 12:39:58;;;;;;;7.03;2.55;;;;;;;;;;5073371;28;20059;-68
2022/01/22 12:42:51;;;;;;;8.57;2.78;;;;;;;;;;5077130;28;20032;-67
2022/01/22 12:45:19;;;;;;;6.60;2.70;;;;;;;;;;5079539;28;20028;-68
2022/01/22 12:47:49;;;;;;;5.50;2.38;;;;;;;;;;5080898;28;20208;-68
2022/01/22 12:50:15;;;;;;;8.20;2.40;;;;;;;;;;5077581;28;20025;-67
2022/01/22 12:52:45;;;;;;;4.18;2.30;;;;;;;;;;5079235;28;20035;-67
2022/01/22 12:55:17;;;;;;;5.20;2.45;;;;;;;;;;5074358;28;20074;-67
2022/01/22 12:57:43;;;;;;;7.15;2.50;;;;;;;;;;5071560;28;20498;-68
2022/01/22 13:00:13;;;;;;;6.07;2.25;;;;;;;;;;5070985;28;20025;-67
2022/01/22 13:02:46;;;;;;;6.40;2.55;;;;;;;;;;5070767;28;20021;-68
2022/01/22 13:05:16;;;;;;;11.50;2.65;;;;;;;;;;5071363;28;20035;-67
2022/01/22 13:07:46;;;;;;;6.47;2.40;;;;;;;;;;5071368;28;20024;-67
2022/01/22 13:10:12;;;;;;;6.35;2.17;;;;;;;;;;5071389;28;20108;-67
2022/01/22 13:12:44;;;;;;;7.18;2.42;;;;;;;;;;5071214;28;20104;-67
2022/01/22 13:15:11;;;;;;;8.32;2.50;;;;;;;;;;5071189;28;20028;-67
2022/01/22 13:17:38;;;;;;;3.67;2.35;;;;;;;;;;5072864;28;20025;-67
2022/01/22 13:20:05;;;;;;;3.95;2.20;;;;;;;;;;5071057;28;20032;-67
2022/01/22 13:22:33;;;;;;;6.20;2.40;;;;;;;;;;5070575;28;20024;-67
2022/01/22 13:25:08;;;;;;;6.20;2.53;;;;;;;;;;5071289;28;20085;-67
2022/01/22 13:27:38;;;;;;;5.35;2.33;;;;;;;;;;5070943;28;20033;-67
2022/01/22 13:30:07;;;;;;;5.43;2.20;;;;;;;;;;5070988;28;20032;-66
2022/01/22 13:32:59;;;;;;;5.78;2.38;;;;;;;;;;5070765;28;20056;-67
2022/01/22 13:36:15;;;;;;;7.97;2.40;;;;;;;;;;5070339;28;20480;-68
2022/01/22 13:49:26;;;;;;;4.68;2.28;;;;;;;;;;5071045;28;20535;-69
2022/01/22 13:51:52;;;;;;;;;;;;;;;;;;5070936;28;20031;-65
2022/01/22 13:54:18;;;;;;;5.72;2.08;;;;;;;;;;5070372;28;19919;-66
2022/01/22 13:56:56;;;;;;;7.68;2.40;;;;;;;;;;5072538;28;20040;-68
2022/01/22 13:59:24;;;;;;;5.15;2.50;;;;;;;;;;5070325;28;20575;-70
2022/01/22 14:04:46;;;;;;;6.43;2.58;;;;;;;;;;5070432;28;20478;-68
2022/01/22 14:07:22;;;;;;;6.75;2.50;;;;;;;;;;5070128;28;20572;-68
2022/01/22 14:10:14;;;;;;;4.45;2.33;;;;;;;;;;5070046;28;20021;-67
2022/01/22 14:12:46;;;;;;;6.90;2.20;;;;;;;;;;5067629;28;20040;-68
2022/01/22 14:15:15;;;;;;;4.10;2.22;;;;;;;;;;5068881;28;20029;-68
2022/01/22 14:20:48;;;;;;;5.35;2.60;;;;;;;;;;5069700;28;20484;-67
2022/01/22 14:23:23;;;;;;;5.93;2.40;;;;;;;;;;5067599;28;20522;-68
2022/01/22 14:26:33;;;;;;;7.40;2.28;;;;;;;;;;5059222;28;20086;-68
2022/01/22 14:29:07;;;;;;;5.20;2.93;;;;;;;;;;5046600;28;20036;-67
2022/01/22 14:31:44;;;;;;;5.90;3.17;;;;;;;;;;5049402;28;20048;-68
2022/01/22 14:34:12;;;;;;;6.75;2.90;;;;;;;;;;5049938;28;20064;-68
2022/01/22 14:36:47;;;;;;;8.98;3.88;;;;;;;;;;5049919;28;20075;-68
2022/01/22 14:39:28;;;;;;;11.63;4.93;;;;;;;;;;5048695;28;20051;-67
2022/01/22 14:44:49;;;;;;;6.50;2.50;;;;;;;;;;5069785;28;20514;-67
2022/01/22 14:47:20;;;;;;;5.80;2.80;;;;;;;;;;5070016;28;20088;-68
2022/01/22 14:49:51;;;;;;;6.30;3.92;;;;;;;;;;5069773;28;20115;-68
2022/01/22 14:52:19;;;;;;;5.57;2.72;;;;;;;;;;5070195;28;20047;-69
2022/01/22 14:54:47;;;;;;;6.75;2.97;;;;;;;;;;5069802;28;20028;-68
2022/01/22 14:57:18;;;;;;;8.05;2.78;;;;;;;;;;5069221;28;20043;-69
2022/01/22 14:59:43;;;;;;;6.70;3.00;;;;;;;;;;5049512;28;20037;-67
2022/01/22 15:02:10;;;;;;;7.68;3.92;;;;;;;;;;5049390;28;20401;-68
2022/01/22 15:04:36;;;;;;;7.18;2.55;;;;;;;;;;5049487;28;20104;-68
2022/01/22 15:07:05;;;;;;;6.93;2.70;;;;;;;;;;5049749;28;20033;-69
2022/01/22 15:09:31;;;;;;;7.38;2.70;;;;;;;;;;5049581;28;20029;-69
2022/01/22 15:11:58;;;;;;;5.70;3.03;;;;;;;;;;5049482;28;20033;-68
2022/01/22 15:14:26;;;;;;;6.53;3.17;;;;;;;;;;5049526;28;20596;-69
2022/01/22 15:17:25;;;;;;;9.63;3.88;;;;;;;;;;5049613;28;20087;-68
2022/01/22 15:19:40;;;;;;;7.85;2.90;;;;;;;;;;5049199;28;20021;-68
2022/01/22 15:22:10;;;;;;;9.13;3.60;;;;;;;;;;5049137;28;20029;-68
2022/01/22 15:24:37;;;;;;;10.10;4.50;;;;;;;;;;5050407;28;20025;-66
2022/01/22 15:27:03;;;;;;;11.35;4.60;;;;;;;;;;5083895;28;20028;-68
2022/01/22 15:29:29;;;;;;;6.82;3.60;;;;;;;;;;5070535;28;20025;-66
2022/01/22 15:37:02;;;;;;;8.23;3.58;;;;;;;;;;5049798;28;20025;-72
2022/01/22 15:39:28;;;;;;;7.22;3.38;;;;;;;;;;5051181;28;20029;-67
2022/01/22 15:41:53;;;;;;;10.48;3.80;;;;;;;;;;5050776;28;20037;-71
2022/01/22 15:44:20;;;;;;;9.55;2.88;;;;;;;;;;5052507;28;20036;-66
2022/01/22 15:46:48;;;;;;;8.50;3.10;;;;;;;;;;5052855;28;20035;-68
2022/01/22 15:49:18;;;;;;;6.78;3.60;;;;;;;;;;5052848;28;20100;-67
2022/01/22 15:51:46;;;;;;;6.30;3.30;;;;;;;;;;5052686;28;20031;-68
2022/01/22 15:54:12;;;;;;;9.07;3.58;;;;;;;;;;5052498;28;20267;-68
2022/01/22 15:56:39;;;;;;;23.08;11.68;;;;;;;;;;5056254;28;20043;-69
2022/01/22 15:59:06;;;;;;;15.65;7.88;;;;;;;;;;5055089;28;20037;-68
2022/01/22 16:01:33;;;;;;;7.50;3.13;;;;;;;;;;5072544;28;20032;-65
2022/01/22 16:03:59;;;;;;;12.18;6.88;;;;;;;;;;5064673;28;20068;-66
2022/01/22 16:06:36;;;;;;;9.70;4.10;;;;;;;;;;5065028;28;20491;-66
2022/01/22 16:09:10;;;;;;;8.43;3.97;;;;;;;;;;5068664;28;20032;-66
2022/01/22 16:11:36;;;;;;;10.02;4.10;;;;;;;;;;5071629;28;20446;-66
2022/01/22 16:14:01;;;;;;;9.20;5.00;;;;;;;;;;5058777;28;20492;-66
2022/01/22 16:16:27;;;;;;;11.13;5.13;;;;;;;;;;5072090;28;20033;-65
2022/01/22 16:18:52;;;;;;;9.13;4.80;;;;;;;;;;5072132;28;20496;-67
2022/01/22 16:21:17;;;;;;;8.02;3.50;;;;;;;;;;5071970;28;20119;-67
2022/01/22 16:23:43;;;;;;;8.82;3.47;;;;;;;;;;5071417;28;20506;-66
2022/01/22 16:26:08;;;;;;;9.40;3.47;;;;;;;;;;5071879;28;20035;-67
2022/01/22 16:28:34;;;;;;;9.73;3.38;;;;;;;;;;5071764;28;20032;-65
2022/01/22 16:30:59;;;;;;;5.90;3.30;;;;;;;;;;5064679;28;20062;-66
2022/01/22 16:33:26;;;;;;;13.75;7.63;;;;;;;;;;5070126;28;20028;-69
2022/01/22 16:35:52;;;;;;;12.00;6.72;;;;;;;;;;5071704;28;20384;-66
2022/01/22 16:38:19;;;;;;;8.68;3.92;;;;;;;;;;5071385;28;20052;-66
2022/01/22 16:40:45;;;;;;;10.30;3.92;;;;;;;;;;5071446;28;20397;-66
2022/01/22 16:43:12;;;;;;;9.75;3.67;;;;;;;;;;5071089;28;20050;-68
2022/01/22 16:56:12;;;;;;;8.48;4.68;;;;;;;;;;5060233;28;20036;-64
2022/01/22 16:58:45;;;;;;;11.20;5.15;;;;;;;;;;5070020;28;20038;-65
2022/01/22 17:01:11;;;;;;;10.57;5.20;;;;;;;;;;5071095;28;20037;-67
2022/01/22 17:03:36;;;;;;;13.52;5.25;;;;;;;;;;5065308;28;20047;-65
2022/01/22 17:06:03;;;;;;;18.90;6.57;;;;;;;;;;5051207;28;20063;-67
2022/01/22 17:08:33;;;;;;;12.73;6.50;;;;;;;;;;5051054;28;20021;-65
2022/01/22 17:11:12;;;;;;;12.57;5.82;;;;;;;;;;5051226;28;20109;-67